Time;durP1;ratioP1;P1;durP2;ratioP2;P2;SDS_P1;SDS_P2;PMS_P1;PMS_P2;Temp;Humidity;BMP_temperature;BMP_pressure;BME280_temperature;BME280_humidity;BME280_pressure;Samples;Min_cycle;Max_cycle;Signal;HPM_P1;HPM_P2
2023/07/30 00:02:02;;;;;;;1999.90;999.90;;;17.10;99.90;;;;;;5053942;28;20033;-71
2023/07/30 00:04:28;;;;;;;1999.90;999.90;;;17.10;99.90;;;;;;5039374;28;20020;-71
2023/07/30 00:06:53;;;;;;;1999.90;999.90;;;17.20;99.90;;;;;;5059760;28;20029;-76
2023/07/30 00:09:19;;;;;;;1999.90;999.90;;;17.10;99.90;;;;;;5054182;28;20032;-77
2023/07/30 00:11:45;;;;;;;1999.90;999.90;;;17.20;99.90;;;;;;5045941;28;20465;-76
2023/07/30 00:14:10;;;;;;;1999.90;999.90;;;17.20;99.90;;;;;;5033836;28;20028;-70
2023/07/30 00:16:36;;;;;;;1999.90;999.90;;;17.20;99.90;;;;;;5034362;28;20034;-70
2023/07/30 00:19:01;;;;;;;1999.90;999.90;;;17.20;99.90;;;;;;5034378;28;20057;-70
2023/07/30 00:21:27;;;;;;;1999.90;999.90;;;17.20;99.90;;;;;;5033115;28;20032;-77
2023/07/30 00:23:53;;;;;;;1999.90;999.90;;;17.20;99.90;;;;;;5033909;28;20021;-71
2023/07/30 00:26:18;;;;;;;1999.90;999.90;;;17.20;99.90;;;;;;5015812;28;20455;-71
2023/07/30 00:28:44;;;;;;;1999.90;999.90;;;17.10;99.90;;;;;;5033694;28;20109;-71
2023/07/30 00:31:09;;;;;;;1999.90;999.90;;;17.20;99.90;;;;;;5033884;28;20025;-70
2023/07/30 00:33:35;;;;;;;1999.90;999.90;;;17.10;99.90;;;;;;5032879;28;20071;-71
2023/07/30 00:36:00;;;;;;;1999.90;999.90;;;17.10;99.90;;;;;;5031946;28;20033;-70
2023/07/30 00:38:26;;;;;;;1999.90;999.90;;;17.10;99.90;;;;;;5033723;28;20026;-71
2023/07/30 00:40:51;;;;;;;1999.90;999.90;;;17.10;99.90;;;;;;5015886;28;20040;-71
2023/07/30 00:43:17;;;;;;;1999.90;999.90;;;17.10;99.90;;;;;;5033485;28;20048;-71
2023/07/30 00:45:44;;;;;;;1999.90;999.90;;;17.10;99.90;;;;;;5033684;28;20029;-70
2023/07/30 00:48:11;;;;;;;1999.90;999.90;;;17.10;99.90;;;;;;5015040;28;20029;-71
2023/07/30 00:50:38;;;;;;;1999.90;999.90;;;17.00;99.90;;;;;;5037250;28;20480;-71
2023/07/30 00:53:04;;;;;;;1999.90;999.90;;;17.00;99.90;;;;;;5053458;28;20055;-70
2023/07/30 00:55:29;;;;;;;1999.90;999.90;;;17.00;99.90;;;;;;5053667;28;20510;-71
2023/07/30 00:57:57;;;;;;;1999.90;999.90;;;17.00;99.90;;;;;;5052281;28;20094;-71
2023/07/30 01:00:24;;;;;;;1999.90;999.90;;;16.90;99.90;;;;;;5053386;28;20021;-71
2023/07/30 01:02:51;;;;;;;1999.90;999.90;;;17.00;99.90;;;;;;5035573;28;20403;-77
2023/07/30 01:05:16;;;;;;;1999.90;999.90;;;17.00;99.90;;;;;;5053240;28;20124;-70
2023/07/30 01:07:42;;;;;;;1999.90;999.90;;;16.90;99.90;;;;;;5053283;28;20064;-71
2023/07/30 01:10:08;;;;;;;1999.90;999.90;;;16.90;99.90;;;;;;5046418;28;20037;-71
2023/07/30 01:12:35;;;;;;;1999.90;999.90;;;16.90;99.90;;;;;;5033374;28;20029;-77
2023/07/30 01:15:02;;;;;;;1999.90;999.90;;;17.00;99.90;;;;;;5032892;28;20025;-71
2023/07/30 01:17:28;;;;;;;1999.90;999.90;;;17.00;99.90;;;;;;5015242;28;20453;-71
2023/07/30 01:19:56;;;;;;;1999.90;999.90;;;17.00;99.90;;;;;;5033285;28;20050;-70
2023/07/30 01:22:23;;;;;;;1999.90;999.90;;;17.10;99.90;;;;;;5033009;28;20112;-70
2023/07/30 01:24:49;;;;;;;1999.90;999.90;;;17.10;99.90;;;;;;5033196;28;20060;-71
2023/07/30 01:27:23;;;;;;;1999.90;999.90;;;17.00;99.90;;;;;;5033065;28;20041;-77
2023/07/30 01:29:54;;;;;;;1999.90;999.90;;;17.00;99.90;;;;;;5033312;28;20436;-70
2023/07/30 01:32:25;;;;;;;1999.90;999.90;;;17.00;99.90;;;;;;5015196;28;20408;-71
2023/07/30 01:34:53;;;;;;;1999.90;999.90;;;16.90;99.90;;;;;;5032656;28;20029;-70
2023/07/30 01:37:20;;;;;;;1999.90;999.90;;;16.90;99.90;;;;;;5015122;28;20546;-71
2023/07/30 01:39:49;;;;;;;1999.90;999.90;;;16.90;99.90;;;;;;5014859;28;20017;-77
2023/07/30 01:42:15;;;;;;;1999.90;999.90;;;16.90;99.90;;;;;;5032879;28;20048;-70
2023/07/30 01:44:42;;;;;;;1999.90;999.90;;;16.90;99.90;;;;;;5015718;28;20049;-70
2023/07/30 01:47:08;;;;;;;1999.90;999.90;;;16.90;99.90;;;;;;5015088;28;20484;-71
2023/07/30 01:49:33;;;;;;;1999.90;999.90;;;16.90;99.90;;;;;;5031899;28;20021;-70
2023/07/30 01:51:59;;;;;;;1999.90;999.90;;;17.00;99.90;;;;;;5048059;28;20041;-71
2023/07/30 01:54:25;;;;;;;1999.90;999.90;;;17.00;99.90;;;;;;5052633;28;20108;-77
2023/07/30 01:56:51;;;;;;;1999.90;999.90;;;17.00;99.90;;;;;;5052845;28;20116;-71
2023/07/30 01:59:17;;;;;;;1999.90;999.90;;;17.00;99.90;;;;;;5052211;28;20431;-70
2023/07/30 02:01:43;;;;;;;1999.90;999.90;;;17.00;99.90;;;;;;5035025;28;20070;-70
2023/07/30 02:04:09;;;;;;;1999.90;999.90;;;17.00;99.90;;;;;;5052355;28;20391;-70
2023/07/30 02:06:35;;;;;;;1999.90;999.90;;;17.10;99.90;;;;;;5053024;28;20067;-77
2023/07/30 02:09:00;;;;;;;1999.90;999.90;;;17.10;99.90;;;;;;5052593;28;20092;-71
2023/07/30 02:11:26;;;;;;;1999.90;999.90;;;17.10;99.90;;;;;;5034725;28;20032;-71
2023/07/30 02:13:52;;;;;;;1999.90;999.90;;;17.20;99.90;;;;;;5032359;28;20032;-71
2023/07/30 02:16:17;;;;;;;1999.90;999.90;;;17.20;99.90;;;;;;5032305;28;20029;-71
2023/07/30 02:18:43;;;;;;;1999.90;999.90;;;17.20;99.90;;;;;;5032008;28;20463;-77
2023/07/30 02:21:09;;;;;;;1999.90;999.90;;;17.20;99.90;;;;;;5032729;28;20029;-71
2023/07/30 02:23:34;;;;;;;1999.90;999.90;;;17.20;99.90;;;;;;5032562;28;20026;-70
2023/07/30 02:26:00;;;;;;;1999.90;999.90;;;17.20;99.90;;;;;;5033863;28;20105;-71
2023/07/30 02:28:26;;;;;;;1999.90;999.90;;;17.20;99.90;;;;;;5035873;28;20439;-71
2023/07/30 02:30:51;;;;;;;1999.90;999.90;;;17.20;99.90;;;;;;5036381;28;20026;-70
2023/07/30 02:33:17;;;;;;;1999.90;999.90;;;17.20;99.90;;;;;;5036058;28;20029;-70
2023/07/30 02:35:45;;;;;;;1999.90;999.90;;;17.20;99.90;;;;;;5035563;28;20025;-70
2023/07/30 02:38:11;;;;;;;1999.90;999.90;;;17.10;99.90;;;;;;5039335;28;20025;-70
2023/07/30 02:40:36;;;;;;;1999.90;999.90;;;17.10;99.90;;;;;;5036895;28;20392;-70
2023/07/30 02:43:02;;;;;;;1999.90;999.90;;;17.20;99.90;;;;;;5047844;28;20056;-71
2023/07/30 02:45:28;;;;;;;1999.90;999.90;;;17.10;99.90;;;;;;5055668;28;20108;-70
2023/07/30 02:47:53;;;;;;;1999.90;999.90;;;17.20;99.90;;;;;;5049042;28;20381;-77
2023/07/30 02:50:19;;;;;;;1999.90;999.90;;;17.20;99.90;;;;;;5035468;28;20029;-71
2023/07/30 02:52:44;;;;;;;1999.90;999.90;;;17.20;99.90;;;;;;5035661;28;20123;-71
2023/07/30 02:55:10;;;;;;;1999.90;999.90;;;17.20;99.90;;;;;;5035279;28;20021;-70
2023/07/30 02:57:36;;;;;;;1999.90;999.90;;;17.20;99.90;;;;;;5016622;28;20108;-77
2023/07/30 03:00:03;;;;;;;1999.90;999.90;;;17.30;99.90;;;;;;5017510;28;20025;-71
2023/07/30 03:02:29;;;;;;;1999.90;999.90;;;17.20;99.90;;;;;;5036191;28;20018;-71
2023/07/30 03:04:55;;;;;;;1999.90;999.90;;;17.20;99.90;;;;;;5035420;28;20022;-71
2023/07/30 03:07:20;;;;;;;1999.90;999.90;;;17.30;99.90;;;;;;5035066;28;20029;-70
2023/07/30 03:09:46;;;;;;;1999.90;999.90;;;17.30;99.90;;;;;;5017347;28;20030;-71
2023/07/30 03:12:12;;;;;;;1999.90;999.90;;;17.40;99.90;;;;;;5035518;28;20595;-77
2023/07/30 03:14:37;;;;;;;1999.90;999.90;;;17.40;99.90;;;;;;5035222;28;20053;-71
2023/07/30 03:17:04;;;;;;;1999.90;999.90;;;17.40;99.90;;;;;;5017468;28;20025;-71
2023/07/30 03:19:30;;;;;;;1999.90;999.90;;;17.40;99.90;;;;;;5035024;28;20105;-71
2023/07/30 03:21:56;;;;;;;1999.90;999.90;;;17.40;99.90;;;;;;5013324;28;20114;-71
2023/07/30 03:24:21;;;;;;;1999.90;999.90;;;17.50;99.90;;;;;;5016844;28;20022;-77
2023/07/30 03:26:47;;;;;;;1999.90;999.90;;;17.50;99.90;;;;;;5035255;28;20036;-77
2023/07/30 03:29:12;;;;;;;1999.90;999.90;;;17.50;99.90;;;;;;5034995;28;20563;-71
2023/07/30 03:31:38;;;;;;;1999.90;999.90;;;17.50;99.90;;;;;;5017053;28;20029;-71
2023/07/30 03:34:03;;;;;;;1999.90;999.90;;;17.50;99.90;;;;;;5034799;28;20025;-71
2023/07/30 03:36:29;;;;;;;1999.90;999.90;;;17.60;99.90;;;;;;5034775;28;20030;-70
2023/07/30 03:38:55;;;;;;;1999.90;999.90;;;17.60;99.90;;;;;;5034512;28;20025;-77
2023/07/30 03:41:20;;;;;;;1999.90;999.90;;;17.70;99.90;;;;;;5034947;28;20527;-70
2023/07/30 03:43:46;;;;;;;1999.90;999.90;;;17.70;99.90;;;;;;5016607;28;20072;-70
2023/07/30 03:46:11;;;;;;;1999.90;999.90;;;17.80;99.90;;;;;;5034860;28;20542;-70
2023/07/30 03:48:38;;;;;;;1999.90;999.90;;;17.80;99.90;;;;;;5033590;28;20104;-71
2023/07/30 03:51:04;;;;;;;1999.90;999.90;;;17.80;99.90;;;;;;5042437;28;20492;-70
2023/07/30 03:53:29;;;;;;;1999.90;999.90;;;17.70;99.90;;;;;;5054671;28;20025;-77
2023/07/30 03:55:55;;;;;;;1999.90;999.90;;;17.70;99.90;;;;;;5054070;28;20480;-70
2023/07/30 03:58:20;;;;;;;1999.90;999.90;;;17.70;99.90;;;;;;5054533;28;20025;-70
2023/07/30 04:00:46;;;;;;;1999.90;999.90;;;17.60;99.90;;;;;;5054187;28;20025;-71
2023/07/30 04:03:11;;;;;;;1999.90;999.90;;;17.50;99.90;;;;;;5054531;28;20036;-76
2023/07/30 04:05:37;;;;;;;1999.90;999.90;;;17.40;99.90;;;;;;5036064;28;20352;-77
2023/07/30 04:08:03;;;;;;;1999.90;999.90;;;17.30;99.90;;;;;;5054397;28;20078;-76
2023/07/30 04:10:28;;;;;;;1999.90;999.90;;;17.30;99.90;;;;;;5026889;28;20029;-71
2023/07/30 04:12:54;;;;;;;1999.90;999.90;;;17.30;99.90;;;;;;5034354;28;20021;-71
2023/07/30 04:15:19;;;;;;;1999.90;999.90;;;17.20;99.90;;;;;;5034081;28;20028;-77
2023/07/30 04:17:45;;;;;;;1999.90;999.90;;;17.20;99.90;;;;;;5034248;28;20413;-71
2023/07/30 04:20:11;;;;;;;1999.90;999.90;;;17.20;99.90;;;;;;5015902;28;20027;-71
2023/07/30 04:22:37;;;;;;;1999.90;999.90;;;17.10;99.90;;;;;;5012523;28;20473;-71
2023/07/30 04:25:03;;;;;;;1999.90;999.90;;;17.10;99.90;;;;;;5016250;28;20032;-71
2023/07/30 04:27:29;;;;;;;1999.90;999.90;;;17.20;99.90;;;;;;5016638;28;20033;-71
2023/07/30 04:29:54;;;;;;;1999.90;999.90;;;17.20;99.90;;;;;;5033686;28;20025;-77
2023/07/30 04:32:20;;;;;;;1999.90;999.90;;;17.20;99.90;;;;;;5033994;28;20480;-71
2023/07/30 04:34:46;;;;;;;1999.90;999.90;;;17.20;99.90;;;;;;5033528;28;20030;-70
2023/07/30 04:37:11;;;;;;;1999.90;999.90;;;17.20;99.90;;;;;;5033341;28;20038;-70
2023/07/30 04:39:37;;;;;;;1999.90;999.90;;;17.30;99.90;;;;;;5034281;28;20020;-71
2023/07/30 04:42:03;;;;;;;1999.90;999.90;;;17.40;99.90;;;;;;5033469;28;20037;-71
2023/07/30 04:44:29;;;;;;;1999.90;999.90;;;17.40;99.90;;;;;;5034010;28;20052;-77
2023/07/30 04:46:54;;;;;;;1999.90;999.90;;;17.40;99.90;;;;;;5033706;28;20029;-70
2023/07/30 04:49:20;;;;;;;1999.90;999.90;;;17.40;99.90;;;;;;5032176;28;20040;-70
2023/07/30 04:51:46;;;;;;;1999.90;999.90;;;17.40;99.90;;;;;;5047232;28;20029;-71
2023/07/30 04:54:11;;;;;;;1999.90;999.90;;;17.40;99.90;;;;;;5032793;28;20116;-76
2023/07/30 04:56:37;;;;;;;1999.90;999.90;;;17.30;99.90;;;;;;5033423;28;20535;-77
2023/07/30 04:59:03;;;;;;;1999.90;999.90;;;17.20;99.90;;;;;;5033449;28;20028;-71
2023/07/30 05:01:29;;;;;;;1999.90;999.90;;;17.20;99.90;;;;;;5032978;28;20053;-70
2023/07/30 05:03:54;;;;;;;1999.90;999.90;;;17.10;99.90;;;;;;5033877;28;20341;-70
2023/07/30 05:06:20;;;;;;;1999.90;999.90;;;17.10;99.90;;;;;;5015839;28;20037;-70
2023/07/30 05:08:46;;;;;;;1999.90;999.90;;;17.10;99.90;;;;;;5020131;28;20029;-77
2023/07/30 05:11:11;;;;;;;1999.90;999.90;;;17.00;99.90;;;;;;5040999;28;20029;-76
2023/07/30 05:13:37;;;;;;;1999.90;999.90;;;17.00;99.90;;;;;;5035745;28;20026;-77
2023/07/30 05:16:03;;;;;;;1999.90;999.90;;;17.00;99.90;;;;;;5033950;28;20060;-73
2023/07/30 05:18:28;;;;;;;1999.90;999.90;;;17.00;99.90;;;;;;5017860;28;20457;-70
2023/07/30 05:20:55;;;;;;;1999.90;999.90;;;17.00;99.90;;;;;;5015223;28;20034;-77
2023/07/30 05:23:20;;;;;;;1999.90;999.90;;;17.10;99.90;;;;;;5032537;28;20032;-77
2023/07/30 05:25:46;;;;;;;1999.90;999.90;;;17.10;99.90;;;;;;5033043;28;20108;-71
2023/07/30 05:28:12;;;;;;;1999.90;999.90;;;17.20;99.90;;;;;;5033204;28;20075;-70
2023/07/30 05:30:37;;;;;;;1999.90;999.90;;;17.30;99.90;;;;;;5032890;28;20025;-71
2023/07/30 05:33:03;;;;;;;1999.90;999.90;;;17.30;99.90;;;;;;5015274;28;20021;-73
2023/07/30 05:35:29;;;;;;;1999.90;999.90;;;17.40;99.90;;;;;;5015081;28;20030;-70
2023/07/30 05:37:54;;;;;;;1999.90;999.90;;;17.50;99.90;;;;;;5033249;28;20108;-71
2023/07/30 05:40:21;;;;;;;1999.90;999.90;;;17.50;99.90;;;;;;5033183;28;20452;-71
2023/07/30 05:42:46;;;;;;;1999.90;999.90;;;17.60;99.90;;;;;;5032641;28;20131;-71
2023/07/30 05:45:12;;;;;;;1999.90;999.90;;;17.70;99.90;;;;;;5033171;28;20069;-71
2023/07/30 05:47:38;;;;;;;1999.90;999.90;;;17.70;99.90;;;;;;5031799;28;20038;-77
2023/07/30 05:50:04;;;;;;;1999.90;999.90;;;17.80;99.90;;;;;;5032387;28;20135;-71
2023/07/30 05:52:30;;;;;;;1999.90;999.90;;;17.90;99.90;;;;;;5032610;28;20029;-71
2023/07/30 05:54:55;;;;;;;1999.90;999.90;;;18.00;99.90;;;;;;5032941;28;20523;-70
2023/07/30 05:57:21;;;;;;;1999.90;999.90;;;18.10;99.90;;;;;;5032624;28;20083;-71
2023/07/30 05:59:46;;;;;;;1999.90;999.90;;;18.10;99.90;;;;;;5032412;28;20468;-71
2023/07/30 06:02:12;;;;;;;1999.90;999.90;;;18.20;99.90;;;;;;5035778;28;20032;-77
2023/07/30 06:04:38;;;;;;;1999.90;999.90;;;18.30;99.90;;;;;;5036938;28;20032;-71
2023/07/30 06:07:04;;;;;;;1999.90;999.90;;;18.30;99.90;;;;;;5018871;28;20373;-71
2023/07/30 06:09:29;;;;;;;1999.90;999.90;;;18.30;99.90;;;;;;5036654;28;20072;-71
2023/07/30 06:11:58;;;;;;;1999.90;999.90;;;18.20;99.90;;;;;;5036099;28;20030;-71
2023/07/30 06:14:24;;;;;;;1999.90;999.90;;;18.10;99.90;;;;;;5036519;28;20036;-77
2023/07/30 06:16:51;;;;;;;1999.90;999.90;;;18.00;99.90;;;;;;5036243;28;20028;-71
2023/07/30 06:19:16;;;;;;;1999.90;999.90;;;18.00;99.90;;;;;;5036740;28;20033;-71
2023/07/30 06:21:42;;;;;;;1999.90;999.90;;;18.10;99.90;;;;;;5014291;28;20125;-71
2023/07/30 06:24:08;;;;;;;1999.90;999.90;;;18.20;99.90;;;;;;5016608;28;20037;-71
2023/07/30 06:26:33;;;;;;;1999.90;999.90;;;18.30;99.90;;;;;;5035071;28;20492;-71
2023/07/30 06:28:59;;;;;;;1999.90;999.90;;;18.40;99.90;;;;;;5035864;28;20104;-77
2023/07/30 06:31:25;;;;;;;1999.90;999.90;;;18.60;99.90;;;;;;5018507;28;20018;-71
2023/07/30 06:33:50;;;;;;;1999.90;999.90;;;18.70;99.90;;;;;;5017956;28;20112;-71
2023/07/30 06:36:16;;;;;;;1999.90;999.90;;;18.80;99.90;;;;;;5035751;28;20029;-71
2023/07/30 06:38:42;;;;;;;1999.90;999.90;;;18.90;99.90;;;;;;5036298;28;20036;-77
2023/07/30 06:41:07;;;;;;;1999.90;999.90;;;18.90;99.90;;;;;;5035509;28;20030;-71
2023/07/30 06:43:33;;;;;;;1999.90;999.90;;;19.00;99.90;;;;;;5036162;28;20053;-71
2023/07/30 06:45:58;;;;;;;1999.90;999.90;;;19.00;99.90;;;;;;5036334;28;20049;-71
2023/07/30 06:48:24;;;;;;;1999.90;999.90;;;19.00;99.90;;;;;;5034976;28;20531;-71
2023/07/30 06:50:50;;;;;;;1999.90;999.90;;;19.00;99.90;;;;;;5035467;28;20100;-71
2023/07/30 06:53:15;;;;;;;1999.90;999.90;;;19.10;99.90;;;;;;5018049;28;20117;-76
2023/07/30 06:55:41;;;;;;;1999.90;999.90;;;19.20;99.90;;;;;;5035593;28;20116;-71
2023/07/30 06:58:07;;;;;;;1999.90;999.90;;;19.10;99.90;;;;;;5035917;28;20026;-71
2023/07/30 07:00:32;;;;;;;1999.90;999.90;;;19.30;99.90;;;;;;5035852;28;20029;-72
2023/07/30 07:02:58;;;;;;;1999.90;999.90;;;19.40;99.90;;;;;;5035689;28;20025;-71
2023/07/30 07:05:24;;;;;;;1999.90;999.90;;;19.60;99.90;;;;;;5035926;28;20025;-77
2023/07/30 07:07:49;;;;;;;1999.90;999.90;;;19.70;99.90;;;;;;5035234;28;20022;-71
2023/07/30 07:10:15;;;;;;;1999.90;999.90;;;19.70;99.90;;;;;;5035047;28;20060;-71
2023/07/30 07:12:41;;;;;;;1999.90;999.90;;;19.80;99.90;;;;;;5034325;28;20510;-71
2023/07/30 07:15:07;;;;;;;1999.90;999.90;;;19.90;99.90;;;;;;5034830;28;20034;-71
2023/07/30 07:17:32;;;;;;;1999.90;999.90;;;20.10;99.90;;;;;;5017410;28;20249;-71
2023/07/30 07:19:58;;;;;;;1999.90;999.90;;;20.30;99.90;;;;;;5035084;28;20087;-77
2023/07/30 07:22:24;;;;;;;1999.90;999.90;;;20.50;99.90;;;;;;5017073;28;20028;-71
2023/07/30 07:24:52;;;;;;;1999.90;999.90;;;20.80;99.90;;;;;;5035179;28;20026;-71
2023/07/30 07:27:18;;;;;;;1999.90;999.90;;;20.80;99.90;;;;;;5034978;28;20022;-71
2023/07/30 07:29:44;;;;;;;1999.90;999.90;;;20.90;99.90;;;;;;5035271;28;20030;-71
2023/07/30 07:32:09;;;;;;;1999.90;999.90;;;21.20;99.90;;;;;;5035178;28;20029;-71
2023/07/30 07:34:35;;;;;;;1999.90;999.90;;;21.20;99.90;;;;;;5034945;28;20104;-77
2023/07/30 07:37:01;;;;;;;1999.90;999.90;;;21.40;99.90;;;;;;5035003;28;20097;-71
2023/07/30 07:39:27;;;;;;;1999.90;999.90;;;21.40;99.90;;;;;;5035074;28;20021;-70
2023/07/30 07:41:53;;;;;;;1999.90;999.90;;;21.60;99.90;;;;;;5017395;28;20041;-71
2023/07/30 07:44:18;;;;;;;1999.90;999.90;;;21.60;99.90;;;;;;5035089;28;20096;-76
2023/07/30 07:46:44;;;;;;;1999.90;999.90;;;21.80;99.90;;;;;;5035279;28;20032;-77
2023/07/30 07:49:09;;;;;;;1999.90;999.90;;;21.90;99.90;;;;;;5033900;28;20029;-71
2023/07/30 07:51:35;;;;;;;1999.90;999.90;;;22.10;99.90;;;;;;5046210;28;20088;-71
2023/07/30 07:54:01;;;;;;;1999.90;999.90;;;24.20;99.90;;;;;;5054223;28;20077;-71
2023/07/30 07:56:26;;;;;;;1999.90;999.90;;;24.20;99.90;;;;;;5037106;28;20032;-77
2023/07/30 07:58:52;;;;;;;1999.90;999.90;;;25.20;99.90;;;;;;5059917;28;20025;-70
2023/07/30 08:01:18;;;;;;;1999.90;999.90;;;24.30;99.90;;;;;;5054315;28;20028;-71
2023/07/30 08:03:44;;;;;;;1999.90;999.90;;;24.40;99.90;;;;;;5056482;28;20044;-78
2023/07/30 08:06:09;;;;;;;1999.90;999.90;;;24.50;99.90;;;;;;5055737;28;20086;-71
2023/07/30 08:08:35;;;;;;;1999.90;999.90;;;23.60;99.90;;;;;;5056457;28;20032;-71
2023/07/30 08:11:06;;;;;;;1999.90;999.90;;;23.50;99.90;;;;;;5043801;28;20064;-77
2023/07/30 08:13:32;;;;;;;1999.90;999.90;;;23.20;99.90;;;;;;5040808;28;20048;-71
2023/07/30 08:15:57;;;;;;;1999.90;999.90;;;22.90;99.90;;;;;;5034242;28;20395;-77
2023/07/30 08:18:23;;;;;;;1999.90;999.90;;;22.90;99.90;;;;;;5034489;28;20017;-70
2023/07/30 08:20:50;;;;;;;1999.90;999.90;;;22.60;99.90;;;;;;5034397;28;20391;-77
2023/07/30 08:23:16;;;;;;;1999.90;999.90;;;22.30;99.90;;;;;;5033561;28;20471;-71
2023/07/30 08:25:41;;;;;;;1999.90;999.90;;;21.60;99.90;;;;;;5015628;28;20075;-77
2023/07/30 08:28:07;;;;;;;1999.90;999.90;;;21.40;99.90;;;;;;5034077;28;20511;-71
2023/07/30 08:30:33;;;;;;;1999.90;999.90;;;21.20;99.90;;;;;;5033744;28;20108;-71
2023/07/30 08:32:58;;;;;;;1999.90;999.90;;;21.00;99.90;;;;;;5033723;28;20029;-71
2023/07/30 08:35:24;;;;;;;1999.90;999.90;;;20.90;99.90;;;;;;5033844;28;20037;-77
2023/07/30 08:37:50;;;;;;;1999.90;999.90;;;20.90;99.90;;;;;;5015655;28;20091;-71
2023/07/30 08:40:15;;;;;;;1999.90;999.90;;;20.70;99.90;;;;;;5033419;28;20071;-71
2023/07/30 08:42:41;;;;;;;1999.90;999.90;;;20.80;99.90;;;;;;5015560;28;20131;-71
2023/07/30 08:45:10;;;;;;;1999.90;999.90;;;21.40;99.90;;;;;;5033992;28;20025;-71
2023/07/30 08:47:35;;;;;;;1999.90;999.90;;;22.40;99.90;;;;;;5032944;28;20476;-71
2023/07/30 08:50:01;;;;;;;1999.90;999.90;;;22.30;99.90;;;;;;5032970;28;20040;-77
2023/07/30 08:52:30;;;;;;;1999.90;999.90;;;22.30;99.90;;;;;;5033039;28;20029;-71
2023/07/30 08:55:00;;;;;;;1999.90;999.90;;;22.10;99.90;;;;;;5033228;28;20025;-71
2023/07/30 08:57:27;;;;;;;1999.90;999.90;;;22.00;99.90;;;;;;5033203;28;20029;-71
2023/07/30 09:00:05;;;;;;;1999.90;999.90;;;21.80;99.90;;;;;;5033377;28;20029;-71
2023/07/30 09:02:33;;;;;;;1999.90;999.90;;;21.50;99.90;;;;;;5033202;28;20014;-71
2023/07/30 09:05:01;;;;;;;1999.90;999.90;;;21.50;99.90;;;;;;5015214;28;20034;-77
2023/07/30 09:07:26;;;;;;;1999.90;999.90;;;21.30;99.90;;;;;;5032954;28;20388;-71
2023/07/30 09:09:52;;;;;;;1999.90;999.90;;;21.00;99.90;;;;;;5015304;28;20087;-71
2023/07/30 09:12:18;;;;;;;1999.90;999.90;;;20.80;99.90;;;;;;5035599;28;20026;-71
2023/07/30 09:14:44;;;;;;;1999.90;999.90;;;20.90;99.90;;;;;;5036963;28;20033;-78
2023/07/30 09:17:16;;;;;;;1999.90;999.90;;;21.00;99.90;;;;;;5032914;28;20392;-71
2023/07/30 09:19:42;;;;;;;1999.90;999.90;;;21.00;99.90;;;;;;5032482;28;20021;-71
2023/07/30 09:22:07;;;;;;;1999.90;999.90;;;21.30;99.90;;;;;;5032823;28;20024;-70
2023/07/30 09:24:33;;;;;;;1999.90;999.90;;;21.40;99.90;;;;;;5032864;28;20022;-71
2023/07/30 09:27:02;;;;;;;1999.90;999.90;;;21.40;99.90;;;;;;5032833;28;20029;-71
2023/07/30 09:29:28;;;;;;;1999.90;999.90;;;21.30;99.90;;;;;;5032666;28;20037;-77
2023/07/30 09:31:55;;;;;;;1999.90;999.90;;;21.30;99.90;;;;;;5032957;28;20029;-71
2023/07/30 09:34:25;;;;;;;1999.90;999.90;;;21.50;99.90;;;;;;5032517;28;20021;-71
2023/07/30 09:36:52;;;;;;;1999.90;999.90;;;21.60;99.90;;;;;;5019025;28;20079;-71
2023/07/30 09:39:23;;;;;;;1999.90;999.90;;;22.40;99.90;;;;;;5036452;28;20500;-71
2023/07/30 09:41:51;;;;;;;1999.90;999.90;;;24.60;99.90;;;;;;5037137;28;20056;-78
2023/07/30 09:44:18;;;;;;;1999.90;999.90;;;28.50;99.90;;;;;;5036589;28;20081;-72
2023/07/30 09:46:49;;;;;;;1999.90;999.90;;;29.30;99.90;;;;;;5036541;28;20033;-72
2023/07/30 09:49:15;;;;;;;1999.90;999.90;;;29.70;99.90;;;;;;5035861;28;20447;-71
2023/07/30 09:51:42;;;;;;;1999.90;999.90;;;30.20;99.90;;;;;;5036854;28;20022;-78
2023/07/30 09:54:09;;;;;;;1999.90;999.90;;;28.80;99.90;;;;;;5037114;28;20022;-72
2023/07/30 09:56:41;;;;;;;1999.90;999.90;;;26.10;99.90;;;;;;5039631;28;20051;-71
2023/07/30 09:59:08;;;;;;;1999.90;999.90;;;24.80;99.90;;;;;;5036329;28;20487;-71
2023/07/30 10:01:42;;;;;;;1999.90;999.90;;;23.50;99.90;;;;;;5038671;28;20020;-70
2023/07/30 10:04:09;;;;;;;1999.90;999.90;;;22.90;99.90;;;;;;5036701;28;20447;-71
2023/07/30 10:06:49;;;;;;;1999.90;999.90;;;25.60;99.90;;;;;;5036395;28;20499;-72
2023/07/30 10:09:19;;;;;;;1999.90;999.90;;;28.40;99.90;;;;;;5036743;28;20033;-72
2023/07/30 10:11:46;;;;;;;1999.90;999.90;;;30.50;99.90;;;;;;5037101;28;20044;-71
2023/07/30 10:14:14;;;;;;;1999.90;999.90;;;29.10;99.90;;;;;;5036018;28;20022;-71
2023/07/30 10:16:50;;;;;;;1999.90;999.90;;;29.70;99.90;;;;;;5036309;28;20022;-71
2023/07/30 10:19:16;;;;;;;1999.90;999.90;;;29.90;99.90;;;;;;5035901;28;20026;-72
2023/07/30 10:21:42;;;;;;;1999.90;999.90;;;28.70;99.90;;;;;;5014810;28;20493;-71
2023/07/30 10:24:09;;;;;;;1999.90;999.90;;;27.10;99.90;;;;;;5016335;28;20037;-71
2023/07/30 10:26:37;;;;;;;1999.90;999.90;;;26.50;99.90;;;;;;5018098;28;20032;-70
2023/07/30 10:29:23;;;;;;;1999.90;999.90;;;25.80;99.90;;;;;;5035859;28;20032;-71
2023/07/30 10:31:57;;;;;;;1999.90;999.90;;;25.10;99.90;;;;;;5035783;28;20022;-71
2023/07/30 10:34:42;;;;;;;1999.90;999.90;;;24.80;99.90;;;;;;5017870;28;20026;-78
2023/07/30 10:37:08;;;;;;;1999.90;999.90;;;24.80;99.90;;;;;;5017392;28;20404;-71
2023/07/30 10:39:34;;;;;;;1999.90;999.90;;;25.60;99.90;;;;;;5017933;28;20032;-70
2023/07/30 10:42:00;;;;;;;1999.90;999.90;;;25.00;99.90;;;;;;5035323;28;20025;-71
2023/07/30 10:44:33;;;;;;;1999.90;999.90;;;25.50;99.90;;;;;;5035617;28;20484;-71
2023/07/30 10:47:00;;;;;;;1999.90;999.90;;;26.10;99.90;;;;;;5034901;28;20496;-78
2023/07/30 10:49:26;;;;;;;1999.90;999.90;;;26.80;99.90;;;;;;5034744;28;20088;-71
2023/07/30 10:51:54;;;;;;;1999.90;999.90;;;27.90;99.90;;;;;;5031891;28;20021;-72
2023/07/30 10:54:20;;;;;;;1999.90;999.90;;;27.90;99.90;;;;;;5037395;28;20103;-71
2023/07/30 10:56:46;;;;;;;1999.90;999.90;;;27.10;99.90;;;;;;5055407;28;20449;-72
2023/07/30 10:59:12;;;;;;;1999.90;999.90;;;27.40;99.90;;;;;;5055057;28;20048;-77
2023/07/30 11:01:39;;;;;;;1999.90;999.90;;;27.20;99.90;;;;;;5037262;28;20044;-72
2023/07/30 11:04:19;;;;;;;1999.90;999.90;;;26.80;99.90;;;;;;5055707;28;20031;-71
2023/07/30 11:06:49;;;;;;;1999.90;999.90;;;26.10;99.90;;;;;;5037310;28;20116;-71
2023/07/30 11:09:23;;;;;;;1999.90;999.90;;;26.30;99.90;;;;;;5055056;28;20029;-71
2023/07/30 11:11:50;;;;;;;1999.90;999.90;;;26.50;99.90;;;;;;5023476;28;20036;-73
2023/07/30 11:14:17;;;;;;;1999.90;999.90;;;27.00;99.90;;;;;;5017136;28;20385;-71
2023/07/30 11:16:51;;;;;;;1999.90;999.90;;;27.20;99.90;;;;;;5035300;28;20055;-71
2023/07/30 11:19:17;;;;;;;1999.90;999.90;;;27.80;99.90;;;;;;5032184;28;20084;-72
2023/07/30 11:21:50;;;;;;;1999.90;999.90;;;27.90;99.90;;;;;;5034777;28;20021;-72
2023/07/30 11:24:15;;;;;;;1999.90;999.90;;;27.90;99.90;;;;;;5034907;28;20032;-78
2023/07/30 11:26:42;;;;;;;1999.90;999.90;;;26.70;99.90;;;;;;5035081;28;20029;-71
2023/07/30 11:29:20;;;;;;;1999.90;999.90;;;27.30;99.90;;;;;;5035471;28;20416;-71
2023/07/30 11:31:47;;;;;;;1999.90;999.90;;;26.80;99.90;;;;;;5016985;28;20025;-71
2023/07/30 11:34:18;;;;;;;1999.90;999.90;;;25.80;99.90;;;;;;5034612;28;20021;-71
2023/07/30 11:36:44;;;;;;;1999.90;999.90;;;24.60;99.90;;;;;;5034498;28;20478;-71
2023/07/30 11:39:10;;;;;;;1999.90;999.90;;;24.70;99.90;;;;;;5034893;28;20025;-71
2023/07/30 11:41:36;;;;;;;1999.90;999.90;;;25.70;99.90;;;;;;5034565;28;20022;-71
2023/07/30 11:44:03;;;;;;;1999.90;999.90;;;25.90;99.90;;;;;;5034384;28;20045;-72
2023/07/30 11:46:30;;;;;;;1999.90;999.90;;;26.30;99.90;;;;;;5034573;28;20446;-72
2023/07/30 11:49:21;;;;;;;1999.90;999.90;;;26.30;99.90;;;;;;5033786;28;20400;-72
2023/07/30 11:51:48;;;;;;;1999.90;999.90;;;26.20;99.90;;;;;;5034223;28;20523;-79
2023/07/30 11:54:23;;;;;;;1999.90;999.90;;;26.00;99.90;;;;;;5016591;28;20446;-71
2023/07/30 11:56:55;;;;;;;1999.90;999.90;;;26.50;99.90;;;;;;5034193;28;20112;-71